createdAt,value
2022-11-02T00:04:36.927Z,11.90
2022-11-02T00:09:34.255Z,11.90
2022-11-02T00:14:31.704Z,12.00
2022-11-02T00:19:30.052Z,12.00
2022-11-02T00:30:45.578Z,12.10
2022-11-02T00:35:45.465Z,12.00
2022-11-02T00:40:43.462Z,12.00
2022-11-02T00:45:40.815Z,11.90
2022-11-02T00:50:38.106Z,11.90
2022-11-02T00:55:35.628Z,11.80
2022-11-02T01:00:32.899Z,11.80
2022-11-02T01:05:31.240Z,11.80
2022-11-02T01:10:31.563Z,11.70
2022-11-02T01:15:29.425Z,11.60
2022-11-02T01:20:26.608Z,11.60
2022-11-02T01:25:24.230Z,11.60
2022-11-02T01:30:21.987Z,11.60
2022-11-02T01:35:19.342Z,11.60
2022-11-02T01:40:16.861Z,11.60
2022-11-02T01:45:15.110Z,11.70
2022-11-02T01:50:21.771Z,11.70
2022-11-02T01:55:21.772Z,11.60
2022-11-02T02:00:20.200Z,11.60
2022-11-02T02:05:18.613Z,11.50
2022-11-02T02:10:16.132Z,11.50
2022-11-02T02:15:14.687Z,11.50
2022-11-02T02:20:50.024Z,11.40
2022-11-02T02:26:05.862Z,11.30
2022-11-02T02:31:36.182Z,11.20
2022-11-02T02:36:36.652Z,11.10
2022-11-02T02:41:48.582Z,10.90
2022-11-02T02:46:59.566Z,10.60
2022-11-02T02:51:57.982Z,10.50
2022-11-02T02:56:58.938Z,10.50
2022-11-02T03:01:57.201Z,10.40
2022-11-02T03:07:01.314Z,10.40
2022-11-02T03:12:28.387Z,10.20
2022-11-02T03:18:06.887Z,10.10
2022-11-02T03:23:46.034Z,9.90
2022-11-02T03:28:58.159Z,9.90
2022-11-02T03:33:57.286Z,9.80
2022-11-02T03:39:04.724Z,9.70
2022-11-02T03:44:10.068Z,9.70
2022-11-02T03:49:14.518Z,9.70
2022-11-02T03:54:22.839Z,9.80
2022-11-02T03:59:20.263Z,9.70
2022-11-02T04:04:17.801Z,9.50
2022-11-02T04:09:15.978Z,9.30
2022-11-02T04:14:32.039Z,9.20
2022-11-02T04:19:29.320Z,9.20
2022-11-02T04:24:45.409Z,9.20
2022-11-02T04:29:43.138Z,9.10
2022-11-02T04:34:40.414Z,8.90
2022-11-02T04:39:38.708Z,8.80
2022-11-02T04:44:36.819Z,8.90
2022-11-02T04:49:34.464Z,8.80
2022-11-02T04:54:32.220Z,8.90
2022-11-02T04:59:38.873Z,9.00
2022-11-02T05:04:36.734Z,8.80
2022-11-02T05:09:39.113Z,8.70
2022-11-02T05:14:37.262Z,8.70
2022-11-02T05:19:36.908Z,8.60
2022-11-02T05:24:36.609Z,8.40
2022-11-02T05:29:33.929Z,8.40
2022-11-02T05:34:31.709Z,8.40
2022-11-02T05:39:29.118Z,8.30
2022-11-02T05:44:26.354Z,8.30
2022-11-02T05:49:23.608Z,8.20
2022-11-02T05:54:21.238Z,8.20
2022-11-02T05:59:18.453Z,8.20
2022-11-02T06:04:15.858Z,8.30
2022-11-02T06:09:13.269Z,8.30
2022-11-02T06:14:10.593Z,8.40
2022-11-02T06:19:08.096Z,8.40
2022-11-02T06:24:05.843Z,8.40
2022-11-02T06:29:03.193Z,8.40
2022-11-02T06:34:00.593Z,8.40
2022-11-02T06:38:57.933Z,8.60
2022-11-02T06:43:55.194Z,8.80
2022-11-02T06:48:52.614Z,9.10
2022-11-02T06:53:50.279Z,9.50
2022-11-02T06:58:47.589Z,10.20
2022-11-02T07:03:44.782Z,10.60
2022-11-02T07:08:42.812Z,11.40
2022-11-02T07:13:40.142Z,13.30
2022-11-02T07:18:37.573Z,14.30
2022-11-02T07:23:34.985Z,15.60
2022-11-02T07:28:32.777Z,16.80
2022-11-02T07:33:30.108Z,18.30
2022-11-02T07:38:27.511Z,18.40
2022-11-02T07:43:24.738Z,17.20
2022-11-02T07:48:21.978Z,15.90
2022-11-02T07:53:19.438Z,15.50
2022-11-02T07:58:16.792Z,15.90
2022-11-02T08:03:14.996Z,17.60
2022-11-02T08:08:15.234Z,20.00
2022-11-02T08:13:15.890Z,20.60
2022-11-02T08:18:16.131Z,21.00
2022-11-02T08:23:16.801Z,22.00
2022-11-02T08:28:26.307Z,22.20
2022-11-02T08:33:23.516Z,22.70
2022-11-02T08:38:24.431Z,23.40
2022-11-02T08:43:22.602Z,23.00
2022-11-02T08:48:19.991Z,22.30
2022-11-02T08:53:18.589Z,22.30
2022-11-02T08:58:15.901Z,22.20
2022-11-02T09:03:15.303Z,22.90
2022-11-02T09:08:21.758Z,23.10
2022-11-02T09:13:25.343Z,22.60
2022-11-02T09:18:24.433Z,22.20
2022-11-02T09:23:22.484Z,22.20
2022-11-02T09:28:19.922Z,22.50
2022-11-02T09:33:17.542Z,22.80
2022-11-02T09:38:16.342Z,22.90
2022-11-02T09:43:31.881Z,23.10
2022-11-02T09:48:35.805Z,23.20
2022-11-02T09:54:04.254Z,23.90
2022-11-02T09:59:19.603Z,23.40
2022-11-02T10:04:19.783Z,23.50
2022-11-02T10:09:40.191Z,22.20
2022-11-02T10:14:39.274Z,22.10
2022-11-02T10:19:41.038Z,21.70
2022-11-02T10:24:45.270Z,21.60
2022-11-02T10:30:00.600Z,20.60
2022-11-02T10:35:17.419Z,20.20
2022-11-02T10:40:20.084Z,20.10
2022-11-02T10:45:30.722Z,19.90
2022-11-02T10:50:48.799Z,18.90
2022-11-02T10:56:17.325Z,18.50
2022-11-02T11:01:15.143Z,18.60
2022-11-02T11:06:13.460Z,18.70
2022-11-02T11:11:15.361Z,18.50
2022-11-02T11:16:16.859Z,18.40
2022-11-02T11:21:16.775Z,18.50
2022-11-02T11:26:28.669Z,18.60
2022-11-02T11:31:26.371Z,19.00
2022-11-02T11:36:33.233Z,19.10
2022-11-02T11:41:32.861Z,19.20
2022-11-02T11:46:49.621Z,19.30
2022-11-02T11:51:50.762Z,19.10
2022-11-02T11:56:49.776Z,18.60
2022-11-02T12:01:48.541Z,18.30
2022-11-02T12:07:06.553Z,18.40
2022-11-02T12:12:09.746Z,18.60
2022-11-02T12:17:34.661Z,18.50
2022-11-02T12:23:04.688Z,18.50
2022-11-02T12:28:13.549Z,18.70
2022-11-02T12:33:26.284Z,18.40
2022-11-02T12:38:47.416Z,18.10
2022-11-02T12:43:46.283Z,18.10
2022-11-02T12:49:19.423Z,18.00
2022-11-02T12:54:23.109Z,17.90
2022-11-02T12:59:24.633Z,18.10
2022-11-02T13:04:43.063Z,18.10
2022-11-02T13:09:56.767Z,18.20
2022-11-02T13:14:57.321Z,18.30
2022-11-02T13:20:02.259Z,18.30
2022-11-02T13:25:15.334Z,18.30
2022-11-02T13:30:16.203Z,18.10
2022-11-02T13:35:19.340Z,18.00
2022-11-02T13:40:22.498Z,17.80
2022-11-02T13:45:37.986Z,17.70
2022-11-02T13:50:39.369Z,17.70
2022-11-02T13:55:45.903Z,17.70
2022-11-02T14:00:47.272Z,17.60
2022-11-02T14:05:57.247Z,17.60
2022-11-02T14:11:06.297Z,17.60
2022-11-02T14:16:04.792Z,17.50
2022-11-02T14:21:42.390Z,17.50
2022-11-02T14:26:55.520Z,17.40
2022-11-02T14:32:01.032Z,17.30
2022-11-02T14:37:22.580Z,17.40
2022-11-02T14:42:19.935Z,17.40
2022-11-02T14:47:19.065Z,17.40
2022-11-02T14:52:16.286Z,17.20
2022-11-02T14:57:33.101Z,17.00
2022-11-02T15:02:42.967Z,16.70
2022-11-02T15:07:42.789Z,16.40
2022-11-02T15:12:41.731Z,16.20
2022-11-02T15:17:39.241Z,15.90
2022-11-02T15:22:47.300Z,15.70
2022-11-02T15:27:45.794Z,15.50
2022-11-02T15:33:01.372Z,15.30
2022-11-02T15:38:19.139Z,15.10
2022-11-02T15:43:46.635Z,14.90
2022-11-02T15:48:48.701Z,14.70
2022-11-02T15:53:58.534Z,14.60
2022-11-02T15:59:01.761Z,14.40
2022-11-02T16:04:06.394Z,14.30
2022-11-02T16:09:37.543Z,14.30
2022-11-02T16:14:34.916Z,14.20
2022-11-02T16:19:32.289Z,14.10
2022-11-02T16:24:29.703Z,14.10
2022-11-02T16:29:31.588Z,14.10
2022-11-02T16:34:33.563Z,14.00
2022-11-02T16:39:37.697Z,13.80
2022-11-02T16:44:35.704Z,13.70
2022-11-02T16:49:54.018Z,13.60
2022-11-02T16:54:51.360Z,13.50
2022-11-02T16:59:53.608Z,13.40
2022-11-02T17:04:57.875Z,13.40
2022-11-02T17:10:00.100Z,13.40
2022-11-02T17:14:58.949Z,13.40
2022-11-02T17:20:09.937Z,13.20
2022-11-02T17:25:24.413Z,13.10
2022-11-02T17:30:30.873Z,13.10
2022-11-02T17:35:28.618Z,13.00
2022-11-02T17:40:26.033Z,12.90
2022-11-02T17:45:34.773Z,13.00
2022-11-02T17:50:34.539Z,13.00
2022-11-02T17:55:33.901Z,13.10
2022-11-02T18:00:31.135Z,13.10
2022-11-02T18:05:36.986Z,13.10
2022-11-02T18:10:38.965Z,13.10
2022-11-02T18:15:36.862Z,13.00
2022-11-02T18:20:38.742Z,13.00
2022-11-02T18:25:39.060Z,13.00
2022-11-02T18:30:36.821Z,12.90
2022-11-02T18:35:34.679Z,12.90
2022-11-02T18:40:35.304Z,12.90
2022-11-02T18:45:32.866Z,12.90
2022-11-02T18:50:30.148Z,13.00
2022-11-02T18:55:27.499Z,13.00
2022-11-02T19:00:24.725Z,13.10
2022-11-02T19:05:40.605Z,13.10
2022-11-02T19:10:37.977Z,13.10
2022-11-02T19:15:39.858Z,13.10
2022-11-02T19:20:40.185Z,13.00
2022-11-02T19:25:37.415Z,13.00
2022-11-02T19:30:37.276Z,13.10
2022-11-02T19:35:34.534Z,13.10
2022-11-02T19:40:31.859Z,13.00
2022-11-02T19:45:29.191Z,13.10
2022-11-02T19:50:26.480Z,13.00
2022-11-02T19:55:28.807Z,13.10
2022-11-02T20:00:27.009Z,13.00
2022-11-02T20:05:24.344Z,13.10
2022-11-02T20:10:21.570Z,13.10
2022-11-02T20:15:18.696Z,13.20
2022-11-02T20:20:16.059Z,13.20
2022-11-02T20:25:13.390Z,13.10
2022-11-02T20:30:11.698Z,13.00
2022-11-02T20:35:13.468Z,13.10
2022-11-02T20:40:11.601Z,13.10
2022-11-02T20:45:09.500Z,13.00
2022-11-02T20:50:09.103Z,12.90
2022-11-02T20:55:08.942Z,12.90
2022-11-02T21:00:06.729Z,12.90
2022-11-02T21:05:05.058Z,12.90
2022-11-02T21:10:02.323Z,12.90
2022-11-02T21:15:00.199Z,12.80
2022-11-02T21:20:08.118Z,12.80
2022-11-02T21:25:16.709Z,12.80
2022-11-02T21:30:14.149Z,13.00
2022-11-02T21:35:11.446Z,13.00
2022-11-02T21:40:09.429Z,12.90
2022-11-02T21:45:08.299Z,13.00
2022-11-02T21:50:08.090Z,12.90
2022-11-02T21:55:06.129Z,12.90
2022-11-02T22:00:03.899Z,12.90
2022-11-02T22:05:01.488Z,12.90
2022-11-02T22:09:58.914Z,12.80
2022-11-02T22:14:56.730Z,12.80
2022-11-02T22:19:54.099Z,12.70
2022-11-02T22:24:51.432Z,12.80
2022-11-02T22:29:48.887Z,12.70
2022-11-02T22:34:47.088Z,12.70
2022-11-02T22:39:44.343Z,12.70
2022-11-02T22:44:41.673Z,12.70
2022-11-02T22:49:38.857Z,12.70
2022-11-02T22:54:36.018Z,12.80
2022-11-02T22:59:33.217Z,12.80
2022-11-02T23:04:30.639Z,12.80
2022-11-02T23:09:28.202Z,12.90
2022-11-02T23:14:25.581Z,12.90
2022-11-02T23:19:28.330Z,12.80
2022-11-02T23:24:45.683Z,12.80
2022-11-02T23:30:01.443Z,12.70
2022-11-02T23:35:17.680Z,12.70
2022-11-02T23:40:16.927Z,12.60
2022-11-02T23:45:14.153Z,12.70
2022-11-02T23:50:11.822Z,12.60
2022-11-02T23:55:31.863Z,12.60
